sensor_id;sensor_type;location;lat;lon;timestamp;pressure;altitude;pressure_sealevel;temperature;humidity
4392;BME280;2210;51.938;8.488;2023-07-24T00:03:40;99499.03;;;18.73;100.00
4392;BME280;2210;51.938;8.488;2023-07-24T00:07:40;99494.78;;;18.76;100.00
4392;BME280;2210;51.938;8.488;2023-07-24T00:11:40;99494.72;;;18.67;100.00
4392;BME280;2210;51.938;8.488;2023-07-24T00:15:47;99492.94;;;18.71;100.00
4392;BME280;2210;51.938;8.488;2023-07-24T00:19:48;99489.38;;;18.79;100.00
4392;BME280;2210;51.938;8.488;2023-07-24T00:23:50;99477.84;;;18.72;100.00
4392;BME280;2210;51.938;8.488;2023-07-24T00:27:50;99482.91;;;18.70;100.00
4392;BME280;2210;51.938;8.488;2023-07-24T00:31:50;99481.56;;;18.67;100.00
4392;BME280;2210;51.938;8.488;2023-07-24T00:35:55;99475.81;;;18.64;100.00
4392;BME280;2210;51.938;8.488;2023-07-24T00:39:55;99469.59;;;18.67;100.00
4392;BME280;2210;51.938;8.488;2023-07-24T00:43:55;99476.19;;;18.71;100.00
4392;BME280;2210;51.938;8.488;2023-07-24T00:47:56;99471.25;;;18.68;100.00
4392;BME280;2210;51.938;8.488;2023-07-24T00:51:56;99460.78;;;18.74;100.00
4392;BME280;2210;51.938;8.488;2023-07-24T00:55:57;99466.28;;;18.65;100.00
4392;BME280;2210;51.938;8.488;2023-07-24T00:59:57;99459.06;;;18.64;100.00
4392;BME280;2210;51.938;8.488;2023-07-24T01:04:03;99460.97;;;18.54;100.00
4392;BME280;2210;51.938;8.488;2023-07-24T01:08:08;99460.81;;;18.60;100.00
4392;BME280;2210;51.938;8.488;2023-07-24T01:12:35;99453.94;;;18.57;100.00
4392;BME280;2210;51.938;8.488;2023-07-24T01:16:37;99447.84;;;18.55;100.00
4392;BME280;2210;51.938;8.488;2023-07-24T01:20:48;99444.34;;;18.49;100.00
4392;BME280;2210;51.938;8.488;2023-07-24T01:25:23;99433.31;;;18.44;100.00
4392;BME280;2210;51.938;8.488;2023-07-24T01:29:29;99441.69;;;18.44;100.00
4392;BME280;2210;51.938;8.488;2023-07-24T01:33:30;99442.81;;;18.43;100.00
4392;BME280;2210;51.938;8.488;2023-07-24T01:37:34;99442.97;;;18.38;100.00
4392;BME280;2210;51.938;8.488;2023-07-24T01:41:37;99436.22;;;18.39;100.00
4392;BME280;2210;51.938;8.488;2023-07-24T01:45:38;99430.47;;;18.35;100.00
4392;BME280;2210;51.938;8.488;2023-07-24T01:49:38;99429.50;;;18.40;100.00
4392;BME280;2210;51.938;8.488;2023-07-24T01:53:42;99418.66;;;18.39;100.00
4392;BME280;2210;51.938;8.488;2023-07-24T01:57:51;99413.88;;;18.39;100.00
4392;BME280;2210;51.938;8.488;2023-07-24T02:01:58;99412.88;;;18.35;100.00
4392;BME280;2210;51.938;8.488;2023-07-24T02:06:01;99423.22;;;18.34;100.00
4392;BME280;2210;51.938;8.488;2023-07-24T02:10:17;99416.00;;;18.33;100.00
4392;BME280;2210;51.938;8.488;2023-07-24T02:14:18;99413.41;;;18.37;100.00
4392;BME280;2210;51.938;8.488;2023-07-24T02:18:18;99404.38;;;18.40;100.00
4392;BME280;2210;51.938;8.488;2023-07-24T02:22:24;99404.91;;;18.42;100.00
4392;BME280;2210;51.938;8.488;2023-07-24T02:26:28;99399.63;;;18.41;100.00
4392;BME280;2210;51.938;8.488;2023-07-24T02:30:28;99402.03;;;18.33;100.00
4392;BME280;2210;51.938;8.488;2023-07-24T02:34:28;99389.09;;;18.37;100.00
4392;BME280;2210;51.938;8.488;2023-07-24T02:38:29;99397.31;;;18.34;100.00
4392;BME280;2210;51.938;8.488;2023-07-24T02:42:29;99386.13;;;18.34;100.00
4392;BME280;2210;51.938;8.488;2023-07-24T02:46:29;99374.81;;;18.39;100.00
4392;BME280;2210;51.938;8.488;2023-07-24T02:50:32;99375.47;;;18.36;100.00
4392;BME280;2210;51.938;8.488;2023-07-24T02:54:33;99379.84;;;18.28;100.00
4392;BME280;2210;51.938;8.488;2023-07-24T02:58:42;99382.81;;;18.32;100.00
4392;BME280;2210;51.938;8.488;2023-07-24T03:02:45;99374.09;;;18.25;100.00
4392;BME280;2210;51.938;8.488;2023-07-24T03:06:45;99373.06;;;18.20;100.00
4392;BME280;2210;51.938;8.488;2023-07-24T03:10:58;99378.25;;;18.13;100.00
4392;BME280;2210;51.938;8.488;2023-07-24T03:14:59;99369.63;;;18.01;100.00
4392;BME280;2210;51.938;8.488;2023-07-24T03:19:14;99370.16;;;18.03;100.00
4392;BME280;2210;51.938;8.488;2023-07-24T03:23:18;99361.78;;;18.03;100.00
4392;BME280;2210;51.938;8.488;2023-07-24T03:27:18;99357.78;;;17.95;100.00
4392;BME280;2210;51.938;8.488;2023-07-24T03:31:21;99352.41;;;17.99;100.00
4392;BME280;2210;51.938;8.488;2023-07-24T03:35:24;99344.47;;;17.92;100.00
4392;BME280;2210;51.938;8.488;2023-07-24T03:39:25;99341.78;;;17.87;100.00
4392;BME280;2210;51.938;8.488;2023-07-24T03:43:25;99337.84;;;17.88;100.00
4392;BME280;2210;51.938;8.488;2023-07-24T03:47:25;99333.22;;;17.83;100.00
4392;BME280;2210;51.938;8.488;2023-07-24T03:51:31;99327.03;;;17.86;100.00
4392;BME280;2210;51.938;8.488;2023-07-24T03:55:34;99316.34;;;17.89;100.00
4392;BME280;2210;51.938;8.488;2023-07-24T03:59:34;99295.81;;;17.84;100.00
4392;BME280;2210;51.938;8.488;2023-07-24T04:03:37;99295.19;;;17.87;100.00
4392;BME280;2210;51.938;8.488;2023-07-24T04:07:38;99292.59;;;17.91;100.00
4392;BME280;2210;51.938;8.488;2023-07-24T04:11:38;99265.34;;;17.88;100.00
4392;BME280;2210;51.938;8.488;2023-07-24T04:15:45;99259.59;;;17.84;100.00
4392;BME280;2210;51.938;8.488;2023-07-24T04:19:52;99251.91;;;17.90;100.00
4392;BME280;2210;51.938;8.488;2023-07-24T04:23:58;99250.47;;;17.93;100.00
4392;BME280;2210;51.938;8.488;2023-07-24T04:28:02;99261.63;;;17.93;100.00
4392;BME280;2210;51.938;8.488;2023-07-24T04:32:02;99270.94;;;17.88;100.00
4392;BME280;2210;51.938;8.488;2023-07-24T04:36:03;99270.00;;;17.93;100.00
4392;BME280;2210;51.938;8.488;2023-07-24T04:40:03;99253.78;;;17.95;100.00
4392;BME280;2210;51.938;8.488;2023-07-24T04:44:07;99256.56;;;17.95;100.00
4392;BME280;2210;51.938;8.488;2023-07-24T04:48:07;99267.22;;;17.93;100.00
4392;BME280;2210;51.938;8.488;2023-07-24T04:52:08;99267.72;;;17.95;100.00
4392;BME280;2210;51.938;8.488;2023-07-24T04:56:08;99267.22;;;17.93;100.00
4392;BME280;2210;51.938;8.488;2023-07-24T05:00:09;99251.50;;;17.97;100.00
4392;BME280;2210;51.938;8.488;2023-07-24T05:04:15;99241.34;;;18.01;100.00
4392;BME280;2210;51.938;8.488;2023-07-24T05:08:25;99235.78;;;18.01;100.00
4392;BME280;2210;51.938;8.488;2023-07-24T05:12:26;99232.66;;;18.02;100.00
4392;BME280;2210;51.938;8.488;2023-07-24T05:16:26;99234.50;;;18.07;100.00
4392;BME280;2210;51.938;8.488;2023-07-24T05:20:26;99234.06;;;18.14;100.00
4392;BME280;2210;51.938;8.488;2023-07-24T05:24:27;99241.25;;;18.15;100.00
4392;BME280;2210;51.938;8.488;2023-07-24T05:28:31;99238.16;;;18.16;100.00
4392;BME280;2210;51.938;8.488;2023-07-24T05:32:32;99235.88;;;18.18;100.00
4392;BME280;2210;51.938;8.488;2023-07-24T05:36:41;99238.19;;;18.25;100.00
4392;BME280;2210;51.938;8.488;2023-07-24T05:40:41;99233.94;;;18.28;100.00
4392;BME280;2210;51.938;8.488;2023-07-24T05:44:42;99246.09;;;18.32;100.00
4392;BME280;2210;51.938;8.488;2023-07-24T05:48:51;99235.63;;;18.37;100.00
4392;BME280;2210;51.938;8.488;2023-07-24T05:52:52;99242.72;;;18.44;100.00
4392;BME280;2210;51.938;8.488;2023-07-24T05:56:58;99242.88;;;18.47;100.00
4392;BME280;2210;51.938;8.488;2023-07-24T06:01:05;99249.31;;;18.48;100.00
4392;BME280;2210;51.938;8.488;2023-07-24T06:05:08;99261.41;;;18.43;100.00
4392;BME280;2210;51.938;8.488;2023-07-24T06:09:08;99255.34;;;18.41;100.00
4392;BME280;2210;51.938;8.488;2023-07-24T06:13:15;99252.97;;;18.26;100.00
4392;BME280;2210;51.938;8.488;2023-07-24T06:17:16;99264.44;;;18.24;100.00
4392;BME280;2210;51.938;8.488;2023-07-24T06:21:16;99269.22;;;18.24;100.00
4392;BME280;2210;51.938;8.488;2023-07-24T06:25:25;99262.16;;;18.26;100.00
4392;BME280;2210;51.938;8.488;2023-07-24T06:29:27;99266.28;;;18.29;100.00
4392;BME280;2210;51.938;8.488;2023-07-24T06:33:28;99261.84;;;18.28;100.00
4392;BME280;2210;51.938;8.488;2023-07-24T06:37:40;99278.41;;;18.24;100.00
4392;BME280;2210;51.938;8.488;2023-07-24T06:41:41;99265.31;;;18.33;100.00
4392;BME280;2210;51.938;8.488;2023-07-24T06:45:41;99275.53;;;18.38;100.00
4392;BME280;2210;51.938;8.488;2023-07-24T06:49:41;99278.69;;;18.45;100.00
4392;BME280;2210;51.938;8.488;2023-07-24T06:53:42;99283.41;;;18.45;100.00
4392;BME280;2210;51.938;8.488;2023-07-24T06:57:54;99281.16;;;18.56;100.00
4392;BME280;2210;51.938;8.488;2023-07-24T07:01:54;99283.97;;;18.56;100.00
4392;BME280;2210;51.938;8.488;2023-07-24T07:05:59;99281.03;;;18.61;100.00
4392;BME280;2210;51.938;8.488;2023-07-24T07:09:59;99292.88;;;18.66;100.00
4392;BME280;2210;51.938;8.488;2023-07-24T07:14:14;99285.34;;;18.67;100.00
4392;BME280;2210;51.938;8.488;2023-07-24T07:18:15;99288.63;;;18.69;100.00
4392;BME280;2210;51.938;8.488;2023-07-24T07:22:15;99276.44;;;18.65;100.00
4392;BME280;2210;51.938;8.488;2023-07-24T07:26:15;99284.97;;;18.60;100.00
4392;BME280;2210;51.938;8.488;2023-07-24T07:30:27;99284.66;;;18.61;100.00
4392;BME280;2210;51.938;8.488;2023-07-24T07:34:28;99283.97;;;18.56;100.00
4392;BME280;2210;51.938;8.488;2023-07-24T07:38:28;99281.88;;;18.61;100.00
4392;BME280;2210;51.938;8.488;2023-07-24T07:42:28;99276.44;;;18.65;100.00
4392;BME280;2210;51.938;8.488;2023-07-24T07:46:29;99279.25;;;18.65;100.00
4392;BME280;2210;51.938;8.488;2023-07-24T07:50:32;99283.50;;;18.62;100.00
4392;BME280;2210;51.938;8.488;2023-07-24T07:54:32;99283.34;;;18.59;100.00
4392;BME280;2210;51.938;8.488;2023-07-24T07:58:39;99283.19;;;18.64;100.00
4392;BME280;2210;51.938;8.488;2023-07-24T08:02:39;99269.53;;;18.94;100.00
4392;BME280;2210;51.938;8.488;2023-07-24T08:06:40;99267.97;;;19.28;100.00
4392;BME280;2210;51.938;8.488;2023-07-24T08:10:40;99271.06;;;19.35;100.00
4392;BME280;2210;51.938;8.488;2023-07-24T08:14:40;99265.00;;;19.42;100.00
4392;BME280;2210;51.938;8.488;2023-07-24T08:18:45;99256.94;;;19.40;100.00
4392;BME280;2210;51.938;8.488;2023-07-24T08:22:52;99250.03;;;19.46;100.00
4392;BME280;2210;51.938;8.488;2023-07-24T08:26:53;99240.66;;;19.42;100.00
4392;BME280;2210;51.938;8.488;2023-07-24T08:31:02;99244.78;;;19.36;100.00
4392;BME280;2210;51.938;8.488;2023-07-24T08:35:03;99250.69;;;19.26;100.00
4392;BME280;2210;51.938;8.488;2023-07-24T08:39:03;99248.53;;;19.14;100.00
4392;BME280;2210;51.938;8.488;2023-07-24T08:43:04;99254.47;;;19.21;100.00
4392;BME280;2210;51.938;8.488;2023-07-24T08:47:10;99251.66;;;19.21;100.00
4392;BME280;2210;51.938;8.488;2023-07-24T08:51:21;99246.09;;;19.30;100.00
4392;BME280;2210;51.938;8.488;2023-07-24T08:55:22;99238.19;;;19.23;100.00
4392;BME280;2210;51.938;8.488;2023-07-24T08:59:27;99240.16;;;19.31;100.00
4392;BME280;2210;51.938;8.488;2023-07-24T09:03:32;99237.53;;;19.35;100.00
4392;BME280;2210;51.938;8.488;2023-07-24T09:07:32;99236.72;;;19.34;100.00
4392;BME280;2210;51.938;8.488;2023-07-24T09:11:32;99229.00;;;19.40;100.00
4392;BME280;2210;51.938;8.488;2023-07-24T09:15:42;99236.25;;;19.41;100.00
4392;BME280;2210;51.938;8.488;2023-07-24T09:19:43;99237.53;;;19.52;100.00
4392;BME280;2210;51.938;8.488;2023-07-24T09:23:56;99234.59;;;19.58;100.00
4392;BME280;2210;51.938;8.488;2023-07-24T09:28:16;99229.00;;;19.58;100.00
4392;BME280;2210;51.938;8.488;2023-07-24T09:32:27;99229.97;;;19.70;100.00
4392;BME280;2210;51.938;8.488;2023-07-24T09:36:37;99226.66;;;19.95;100.00
4392;BME280;2210;51.938;8.488;2023-07-24T09:40:41;99220.38;;;20.07;100.00
4392;BME280;2210;51.938;8.488;2023-07-24T09:44:42;99215.84;;;20.32;100.00
4392;BME280;2210;51.938;8.488;2023-07-24T09:48:42;99206.31;;;20.71;100.00
4392;BME280;2210;51.938;8.488;2023-07-24T09:52:49;99208.25;;;21.01;100.00
4392;BME280;2210;51.938;8.488;2023-07-24T09:56:53;99209.25;;;20.75;100.00
4392;BME280;2210;51.938;8.488;2023-07-24T10:00:58;99212.53;;;20.38;100.00
4392;BME280;2210;51.938;8.488;2023-07-24T10:05:01;99215.25;;;20.09;100.00
4392;BME280;2210;51.938;8.488;2023-07-24T10:09:08;99214.16;;;19.92;100.00
4392;BME280;2210;51.938;8.488;2023-07-24T10:13:15;99218.31;;;19.86;100.00
4392;BME280;2210;51.938;8.488;2023-07-24T10:17:35;99218.59;;;19.76;100.00
4392;BME280;2210;51.938;8.488;2023-07-24T10:21:46;99212.19;;;19.93;100.00
4392;BME280;2210;51.938;8.488;2023-07-24T10:25:49;99209.53;;;20.05;100.00
4392;BME280;2210;51.938;8.488;2023-07-24T10:30:08;99205.50;;;20.24;100.00
4392;BME280;2210;51.938;8.488;2023-07-24T10:34:15;99201.78;;;20.49;100.00
4392;BME280;2210;51.938;8.488;2023-07-24T10:38:18;99199.06;;;20.62;100.00
4392;BME280;2210;51.938;8.488;2023-07-24T10:42:22;99210.00;;;20.54;100.00
4392;BME280;2210;51.938;8.488;2023-07-24T10:46:22;99217.03;;;20.31;100.00
4392;BME280;2210;51.938;8.488;2023-07-24T10:50:23;99218.41;;;20.07;100.00
4392;BME280;2210;51.938;8.488;2023-07-24T10:54:26;99212.19;;;19.93;100.00
4392;BME280;2210;51.938;8.488;2023-07-24T10:58:26;99216.94;;;20.01;100.00
4392;BME280;2210;51.938;8.488;2023-07-24T11:02:36;99204.19;;;20.30;100.00
4392;BME280;2210;51.938;8.488;2023-07-24T11:06:36;99213.38;;;20.39;100.00
4392;BME280;2210;51.938;8.488;2023-07-24T11:10:36;99194.69;;;20.52;100.00
4392;BME280;2210;51.938;8.488;2023-07-24T11:14:49;99191.31;;;20.67;100.00
4392;BME280;2210;51.938;8.488;2023-07-24T11:18:50;99200.53;;;20.68;100.00
4392;BME280;2210;51.938;8.488;2023-07-24T11:22:57;99203.34;;;20.68;100.00
4392;BME280;2210;51.938;8.488;2023-07-24T11:27:10;99202.53;;;20.67;100.00
4392;BME280;2210;51.938;8.488;2023-07-24T11:31:13;99217.91;;;20.91;100.00
4392;BME280;2210;51.938;8.488;2023-07-24T11:35:19;99216.63;;;21.31;100.00
4392;BME280;2210;51.938;8.488;2023-07-24T11:39:25;99199.69;;;21.27;100.00
4392;BME280;2210;51.938;8.488;2023-07-24T11:43:28;99193.72;;;21.29;100.00
4392;BME280;2210;51.938;8.488;2023-07-24T11:47:48;99194.78;;;21.36;100.00
4392;BME280;2210;51.938;8.488;2023-07-24T11:51:49;99189.88;;;21.33;100.00
4392;BME280;2210;51.938;8.488;2023-07-24T11:55:54;99184.16;;;21.09;100.00
4392;BME280;2210;51.938;8.488;2023-07-24T11:59:58;99166.63;;;20.69;100.00
4392;BME280;2210;51.938;8.488;2023-07-24T12:04:02;99176.88;;;20.57;100.00
4392;BME280;2210;51.938;8.488;2023-07-24T12:08:05;99174.38;;;20.64;100.00
4392;BME280;2210;51.938;8.488;2023-07-24T12:12:08;99154.94;;;20.59;100.00
4392;BME280;2210;51.938;8.488;2023-07-24T12:16:11;99151.97;;;20.64;100.00
4392;BME280;2210;51.938;8.488;2023-07-24T12:20:14;99131.78;;;20.79;100.00
4392;BME280;2210;51.938;8.488;2023-07-24T12:24:14;99131.13;;;20.82;100.00
4392;BME280;2210;51.938;8.488;2023-07-24T12:28:14;99143.22;;;20.74;100.00
4392;BME280;2210;51.938;8.488;2023-07-24T12:32:24;99136.81;;;20.65;100.00
4392;BME280;2210;51.938;8.488;2023-07-24T12:36:27;99143.13;;;20.53;100.00
4392;BME280;2210;51.938;8.488;2023-07-24T12:40:27;99158.16;;;20.48;100.00
4392;BME280;2210;51.938;8.488;2023-07-24T12:44:31;99173.50;;;20.42;100.00
4392;BME280;2210;51.938;8.488;2023-07-24T12:48:37;99192.69;;;20.23;100.00
4392;BME280;2210;51.938;8.488;2023-07-24T12:52:37;99210.50;;;20.09;100.00
4392;BME280;2210;51.938;8.488;2023-07-24T12:56:44;99197.88;;;19.85;100.00
4392;BME280;2210;51.938;8.488;2023-07-24T13:00:44;99185.72;;;19.73;100.00
4392;BME280;2210;51.938;8.488;2023-07-24T13:04:47;99155.16;;;19.50;100.00
4392;BME280;2210;51.938;8.488;2023-07-24T13:08:48;99167.81;;;19.47;100.00
4392;BME280;2210;51.938;8.488;2023-07-24T13:12:55;99167.81;;;19.47;100.00
4392;BME280;2210;51.938;8.488;2023-07-24T13:17:01;99186.41;;;19.43;100.00
4392;BME280;2210;51.938;8.488;2023-07-24T13:21:06;99196.75;;;19.34;100.00
4392;BME280;2210;51.938;8.488;2023-07-24T13:25:20;99221.25;;;19.28;100.00
4392;BME280;2210;51.938;8.488;2023-07-24T13:29:23;99211.50;;;18.91;100.00
4392;BME280;2210;51.938;8.488;2023-07-24T13:33:24;99210.81;;;18.76;100.00
4392;BME280;2210;51.938;8.488;2023-07-24T13:37:27;99211.44;;;18.73;100.00
4392;BME280;2210;51.938;8.488;2023-07-24T13:41:27;99223.31;;;18.87;100.00
4392;BME280;2210;51.938;8.488;2023-07-24T13:45:28;99215.22;;;18.68;100.00
4392;BME280;2210;51.938;8.488;2023-07-24T13:49:28;99195.16;;;18.49;100.00
4392;BME280;2210;51.938;8.488;2023-07-24T13:53:32;99126.94;;;18.32;100.00
4392;BME280;2210;51.938;8.488;2023-07-24T13:57:35;99035.16;;;18.05;100.00
4392;BME280;2210;51.938;8.488;2023-07-24T14:01:35;99018.94;;;18.15;100.00
4392;BME280;2210;51.938;8.488;2023-07-24T14:05:35;99029.31;;;18.24;100.00
4392;BME280;2210;51.938;8.488;2023-07-24T14:09:39;99041.50;;;18.63;100.00
4392;BME280;2210;51.938;8.488;2023-07-24T14:13:39;99030.84;;;18.91;100.00
4392;BME280;2210;51.938;8.488;2023-07-24T14:17:42;99037.69;;;19.20;100.00
4392;BME280;2210;51.938;8.488;2023-07-24T14:21:43;99046.94;;;18.94;100.00
4392;BME280;2210;51.938;8.488;2023-07-24T14:25:44;99055.28;;;19.03;100.00
4392;BME280;2210;51.938;8.488;2023-07-24T14:29:47;99059.69;;;19.30;100.00
4392;BME280;2210;51.938;8.488;2023-07-24T14:33:47;99068.19;;;19.51;100.00
4392;BME280;2210;51.938;8.488;2023-07-24T14:37:48;99071.78;;;19.61;100.00
4392;BME280;2210;51.938;8.488;2023-07-24T14:41:51;99060.94;;;19.50;100.00
4392;BME280;2210;51.938;8.488;2023-07-24T14:45:51;99058.69;;;19.35;100.00
4392;BME280;2210;51.938;8.488;2023-07-24T14:49:51;99052.41;;;19.47;100.00
4392;BME280;2210;51.938;8.488;2023-07-24T14:53:52;99043.81;;;19.61;100.00
4392;BME280;2210;51.938;8.488;2023-07-24T14:57:52;99052.66;;;19.63;100.00
4392;BME280;2210;51.938;8.488;2023-07-24T15:02:11;99043.47;;;19.62;100.00
4392;BME280;2210;51.938;8.488;2023-07-24T15:06:11;99032.28;;;19.62;100.00
4392;BME280;2210;51.938;8.488;2023-07-24T15:10:14;99030.63;;;19.70;100.00
4392;BME280;2210;51.938;8.488;2023-07-24T15:14:14;99024.81;;;19.84;100.00
4392;BME280;2210;51.938;8.488;2023-07-24T15:18:27;99035.00;;;19.88;100.00
4392;BME280;2210;51.938;8.488;2023-07-24T15:22:27;99039.63;;;19.84;100.00
4392;BME280;2210;51.938;8.488;2023-07-24T15:26:27;99048.38;;;19.74;100.00
4392;BME280;2210;51.938;8.488;2023-07-24T15:30:31;99051.97;;;19.75;100.00
4392;BME280;2210;51.938;8.488;2023-07-24T15:34:41;99046.88;;;19.77;100.00
4392;BME280;2210;51.938;8.488;2023-07-24T15:38:44;99042.63;;;19.70;100.00
4392;BME280;2210;51.938;8.488;2023-07-24T15:42:45;99047.69;;;19.77;100.00
4392;BME280;2210;51.938;8.488;2023-07-24T15:46:58;99041.25;;;19.94;100.00
4392;BME280;2210;51.938;8.488;2023-07-24T15:50:59;99035.66;;;19.94;100.00
4392;BME280;2210;51.938;8.488;2023-07-24T15:55:05;99048.44;;;19.95;100.00
4392;BME280;2210;51.938;8.488;2023-07-24T15:59:12;99051.47;;;19.90;100.00
4392;BME280;2210;51.938;8.488;2023-07-24T16:03:13;99053.97;;;19.74;100.00
4392;BME280;2210;51.938;8.488;2023-07-24T16:07:23;99068.47;;;19.59;100.00
4392;BME280;2210;51.938;8.488;2023-07-24T16:11:29;99070.16;;;19.51;100.00
4392;BME280;2210;51.938;8.488;2023-07-24T16:15:39;99078.88;;;19.49;100.00
4392;BME280;2210;51.938;8.488;2023-07-24T16:19:39;99072.50;;;19.40;100.00
4392;BME280;2210;51.938;8.488;2023-07-24T16:23:44;99075.63;;;19.38;100.00
4392;BME280;2210;51.938;8.488;2023-07-24T16:27:44;99078.22;;;19.44;100.00
4392;BME280;2210;51.938;8.488;2023-07-24T16:31:50;99081.22;;;19.38;100.00
4392;BME280;2210;51.938;8.488;2023-07-24T16:35:53;99066.91;;;19.40;100.00
4392;BME280;2210;51.938;8.488;2023-07-24T16:39:54;99065.09;;;19.35;100.00
4392;BME280;2210;51.938;8.488;2023-07-24T16:43:55;99060.97;;;19.42;100.00
4392;BME280;2210;51.938;8.488;2023-07-24T16:48:07;99069.81;;;19.52;100.00
4392;BME280;2210;51.938;8.488;2023-07-24T16:52:07;99056.66;;;19.53;100.00
4392;BME280;2210;51.938;8.488;2023-07-24T16:56:09;99043.34;;;19.50;100.00
4392;BME280;2210;51.938;8.488;2023-07-24T17:00:09;99053.72;;;19.49;100.00
4392;BME280;2210;51.938;8.488;2023-07-24T17:04:10;99058.47;;;19.49;100.00
4392;BME280;2210;51.938;8.488;2023-07-24T17:08:13;99065.75;;;19.41;100.00
4392;BME280;2210;51.938;8.488;2023-07-24T17:12:13;99066.91;;;19.40;100.00
4392;BME280;2210;51.938;8.488;2023-07-24T17:16:17;99086.00;;;19.20;100.00
4392;BME280;2210;51.938;8.488;2023-07-24T17:20:18;99088.44;;;19.22;100.00
4392;BME280;2210;51.938;8.488;2023-07-24T17:24:25;99098.50;;;19.14;100.00
4392;BME280;2210;51.938;8.488;2023-07-24T17:28:25;99101.78;;;19.16;100.00
4392;BME280;2210;51.938;8.488;2023-07-24T17:32:34;99114.44;;;19.23;100.00
4392;BME280;2210;51.938;8.488;2023-07-24T17:36:34;99107.03;;;19.09;100.00
4392;BME280;2210;51.938;8.488;2023-07-24T17:40:37;99102.44;;;19.13;100.00
4392;BME280;2210;51.938;8.488;2023-07-24T17:44:40;99112.47;;;19.14;100.00
4392;BME280;2210;51.938;8.488;2023-07-24T17:48:42;99129.72;;;19.16;100.00
4392;BME280;2210;51.938;8.488;2023-07-24T17:52:47;99134.66;;;19.02;100.00
4392;BME280;2210;51.938;8.488;2023-07-24T17:56:47;99155.75;;;18.59;100.00
4392;BME280;2210;51.938;8.488;2023-07-24T18:00:48;99158.41;;;18.73;100.00
4392;BME280;2210;51.938;8.488;2023-07-24T18:04:51;99153.56;;;18.47;100.00
4392;BME280;2210;51.938;8.488;2023-07-24T18:08:54;99153.56;;;18.47;100.00
4392;BME280;2210;51.938;8.488;2023-07-24T18:12:54;99162.00;;;18.56;100.00
4392;BME280;2210;51.938;8.488;2023-07-24T18:17:07;99177.22;;;18.41;100.00
4392;BME280;2210;51.938;8.488;2023-07-24T18:21:10;99177.50;;;18.31;100.00
4392;BME280;2210;51.938;8.488;2023-07-24T18:25:10;99188.50;;;18.27;100.00
4392;BME280;2210;51.938;8.488;2023-07-24T18:29:10;99188.50;;;18.27;100.00
4392;BME280;2210;51.938;8.488;2023-07-24T18:33:11;99200.94;;;18.21;100.00
4392;BME280;2210;51.938;8.488;2023-07-24T18:37:11;99206.69;;;18.25;100.00
4392;BME280;2210;51.938;8.488;2023-07-24T18:41:15;99223.44;;;18.25;100.00
4392;BME280;2210;51.938;8.488;2023-07-24T18:45:15;99219.31;;;18.22;100.00
4392;BME280;2210;51.938;8.488;2023-07-24T18:49:15;99225.03;;;18.17;100.00
4392;BME280;2210;51.938;8.488;2023-07-24T18:53:15;99228.78;;;18.12;100.00
4392;BME280;2210;51.938;8.488;2023-07-24T18:57:20;99236.16;;;18.08;100.00
4392;BME280;2210;51.938;8.488;2023-07-24T19:01:26;99249.03;;;17.95;100.00
4392;BME280;2210;51.938;8.488;2023-07-24T19:05:29;99247.41;;;17.80;100.00
4392;BME280;2210;51.938;8.488;2023-07-24T19:09:30;99254.41;;;17.69;100.00
4392;BME280;2210;51.938;8.488;2023-07-24T19:13:33;99264.81;;;17.63;100.00
4392;BME280;2210;51.938;8.488;2023-07-24T19:17:33;99266.22;;;17.52;100.00
4392;BME280;2210;51.938;8.488;2023-07-24T19:21:34;99277.91;;;17.54;100.00
4392;BME280;2210;51.938;8.488;2023-07-24T19:25:35;99278.19;;;17.52;100.00
4392;BME280;2210;51.938;8.488;2023-07-24T19:29:35;99277.69;;;17.50;100.00
4392;BME280;2210;51.938;8.488;2023-07-24T19:33:36;99289.59;;;17.42;100.00
4392;BME280;2210;51.938;8.488;2023-07-24T19:37:36;99295.25;;;17.37;100.00
4392;BME280;2210;51.938;8.488;2023-07-24T19:41:36;99299.81;;;17.33;100.00
4392;BME280;2210;51.938;8.488;2023-07-24T19:45:39;99302.22;;;17.26;100.00
4392;BME280;2210;51.938;8.488;2023-07-24T19:49:40;99301.38;;;17.25;100.00
4392;BME280;2210;51.938;8.488;2023-07-24T19:53:41;99297.78;;;17.25;100.00
4392;BME280;2210;51.938;8.488;2023-07-24T19:57:53;99306.66;;;17.13;100.00
4392;BME280;2210;51.938;8.488;2023-07-24T20:02:02;99319.03;;;17.21;100.00
4392;BME280;2210;51.938;8.488;2023-07-24T20:06:11;99317.06;;;17.21;100.00
4392;BME280;2210;51.938;8.488;2023-07-24T20:10:12;99321.28;;;17.18;100.00
4392;BME280;2210;51.938;8.488;2023-07-24T20:14:13;99328.50;;;17.19;100.00
4392;BME280;2210;51.938;8.488;2023-07-24T20:18:13;99337.09;;;17.23;100.00
4392;BME280;2210;51.938;8.488;2023-07-24T20:22:17;99340.69;;;17.24;100.00
4392;BME280;2210;51.938;8.488;2023-07-24T20:26:17;99340.78;;;17.18;100.00
4392;BME280;2210;51.938;8.488;2023-07-24T20:30:17;99344.72;;;17.17;100.00
4392;BME280;2210;51.938;8.488;2023-07-24T20:34:33;99349.34;;;17.22;100.00
4392;BME280;2210;51.938;8.488;2023-07-24T20:38:36;99346.88;;;17.21;100.00
4392;BME280;2210;51.938;8.488;2023-07-24T20:42:43;99351.41;;;17.16;100.00
4392;BME280;2210;51.938;8.488;2023-07-24T20:46:43;99356.38;;;17.19;100.00
4392;BME280;2210;51.938;8.488;2023-07-24T20:50:43;99361.31;;;17.23;100.00
4392;BME280;2210;51.938;8.488;2023-07-24T20:54:44;99372.25;;;17.19;100.00
4392;BME280;2210;51.938;8.488;2023-07-24T20:58:57;99375.53;;;17.21;100.00
4392;BME280;2210;51.938;8.488;2023-07-24T21:02:57;99381.13;;;17.07;100.00
4392;BME280;2210;51.938;8.488;2023-07-24T21:07:02;99385.25;;;17.24;100.00
4392;BME280;2210;51.938;8.488;2023-07-24T21:11:02;99400.13;;;17.19;100.00
4392;BME280;2210;51.938;8.488;2023-07-24T21:15:02;99403.00;;;17.14;100.00
4392;BME280;2210;51.938;8.488;2023-07-24T21:19:05;99398.47;;;17.18;100.00
4392;BME280;2210;51.938;8.488;2023-07-24T21:23:12;99402.91;;;17.19;100.00
4392;BME280;2210;51.938;8.488;2023-07-24T21:27:16;99410.84;;;17.26;100.00
4392;BME280;2210;51.938;8.488;2023-07-24T21:31:22;99414.94;;;17.14;100.00
4392;BME280;2210;51.938;8.488;2023-07-24T21:35:24;99420.44;;;17.19;100.00
4392;BME280;2210;51.938;8.488;2023-07-24T21:39:33;99425.28;;;17.00;100.00
4392;BME280;2210;51.938;8.488;2023-07-24T21:43:40;99419.75;;;16.81;100.00
4392;BME280;2210;51.938;8.488;2023-07-24T21:47:46;99418.25;;;16.69;100.00